CSC3517 ZGHA-ZSPD
Flight info
| Callsign | CSC3517 |
|---|---|
| Flight time | 1h 38m |
| Altitude | 37100 |
| Route | GUD9X GUDRO W56 IDPOG A581 WHA R343 SASAN SAS81A |
| Aircraft | A320/M-SDE3FGHIRWY/LB1 |
Departure
| Time | 2026-05-04 15:26 |
|---|---|
| Airport | Changsha Huanghua International Airport (ZGHA) |
Arrival
| Time | 2026-05-04 17:04 |
|---|---|
| Airport | Shanghai Pudong International Airport (ZSPD) |
| Time | Latitude | Longitude | Altitude | Speed | Heading |
|---|---|---|---|---|---|
| 2026-05-04 15:05 | 28.18784 | 113.21587 | 213 ft | 0 kts | 222° |
| 2026-05-04 15:11 | 28.18788 | 113.21591 | 213 ft | 1 kts | 222° |
| 2026-05-04 15:12 | 28.18791 | 113.21594 | 218 ft | 0 kts | 222° |
| 2026-05-04 15:14 | 28.18792 | 113.21595 | 218 ft | 1 kts | 222° |
| 2026-05-04 15:14 | 28.18798 | 113.21601 | 216 ft | 1 kts | 222° |
| 2026-05-04 15:14 | 28.18801 | 113.21604 | 216 ft | 0 kts | 222° |
| 2026-05-04 15:14 | 28.18805 | 113.21609 | 213 ft | 3 kts | 222° |
| 2026-05-04 15:15 | 28.18806 | 113.21609 | 213 ft | 0 kts | 222° |
| 2026-05-04 15:15 | 28.18810 | 113.21614 | 213 ft | 4 kts | 222° |
| 2026-05-04 15:15 | 28.18830 | 113.21634 | 214 ft | 5 kts | 222° |
| 2026-05-04 15:16 | 28.18874 | 113.21628 | 213 ft | 5 kts | 90° |
| 2026-05-04 15:16 | 28.18874 | 113.21624 | 213 ft | 0 kts | 90° |
| 2026-05-04 15:20 | 28.18885 | 113.21682 | 216 ft | 27 kts | 67° |
| 2026-05-04 15:20 | 28.18898 | 113.21718 | 217 ft | 0 kts | 69° |
| 2026-05-04 15:21 | 28.18898 | 113.21719 | 217 ft | 1 kts | 70° |
| 2026-05-04 15:21 | 28.18644 | 113.21798 | 214 ft | 44 kts | 175° |
| 2026-05-04 15:22 | 28.18249 | 113.21834 | 218 ft | 64 kts | 178° |
| 2026-05-04 15:22 | 28.17810 | 113.21861 | 214 ft | 43 kts | 175° |
| 2026-05-04 15:22 | 28.17745 | 113.21944 | 215 ft | 0 kts | 87° |
| 2026-05-04 15:25 | 28.17747 | 113.21961 | 218 ft | 16 kts | 81° |
| 2026-05-04 15:25 | 28.17904 | 113.22035 | 216 ft | 37 kts | 354° |
| 2026-05-04 15:25 | 28.18424 | 113.22005 | 216 ft | 123 kts | 357° |
| 2026-05-04 15:26 | 28.20867 | 113.21832 | 1226 ft | 197 kts | 357° |
| 2026-05-04 15:26 | 28.22273 | 113.21739 | 1638 ft | 205 kts | 359° |
| 2026-05-04 15:26 | 28.25167 | 113.21583 | 1181 ft | 210 kts | 358° |
| 2026-05-04 15:27 | 28.26582 | 113.21499 | 1222 ft | 196 kts | 358° |
| 2026-05-04 15:27 | 28.29241 | 113.22503 | 2029 ft | 214 kts | 51° |
| 2026-05-04 15:28 | 28.30847 | 113.25388 | 4250 ft | 219 kts | 63° |
| 2026-05-04 15:28 | 28.31623 | 113.26906 | 5424 ft | 225 kts | 61° |
| 2026-05-04 15:28 | 28.33318 | 113.29947 | 7842 ft | 231 kts | 56° |
| 2026-05-04 15:29 | 28.34215 | 113.31472 | 9032 ft | 234 kts | 56° |
| 2026-05-04 15:30 | 28.38013 | 113.37868 | 12996 ft | 271 kts | 56° |
| 2026-05-04 15:30 | 28.41608 | 113.43951 | 14499 ft | 348 kts | 56° |
| 2026-05-04 15:31 | 28.45281 | 113.47728 | 15783 ft | 372 kts | 21° |
| 2026-05-04 15:31 | 28.47785 | 113.48445 | 16726 ft | 373 kts | 4° |
| 2026-05-04 15:32 | 28.55759 | 113.48684 | 19070 ft | 392 kts | 358° |
| 2026-05-04 15:32 | 28.61200 | 113.48971 | 19286 ft | 392 kts | 360° |
| 2026-05-04 15:33 | 28.66661 | 113.49358 | 19492 ft | 393 kts | 0° |
| 2026-05-04 15:34 | 28.70032 | 113.49605 | 19619 ft | 395 kts | 0° |
| 2026-05-04 15:35 | 28.71678 | 113.49727 | 19764 ft | 376 kts | 0° |
| 2026-05-04 15:35 | 28.74091 | 113.49916 | 19778 ft | 332 kts | 359° |
| 2026-05-04 15:35 | 28.76423 | 113.50081 | 19845 ft | 352 kts | 359° |
| 2026-05-04 15:36 | 28.81566 | 113.50428 | 19843 ft | 392 kts | 0° |
| 2026-05-04 15:36 | 28.84309 | 113.50623 | 19843 ft | 395 kts | 0° |
| 2026-05-04 15:36 | 28.87040 | 113.50823 | 19833 ft | 395 kts | 0° |
| 2026-05-04 15:37 | 28.89797 | 113.51024 | 19841 ft | 395 kts | 0° |
| 2026-05-04 15:37 | 28.92539 | 113.51223 | 19837 ft | 394 kts | 0° |
| 2026-05-04 15:37 | 28.95276 | 113.51421 | 19843 ft | 394 kts | 0° |
| 2026-05-04 15:37 | 28.98013 | 113.51617 | 19838 ft | 394 kts | 0° |
| 2026-05-04 15:38 | 29.00709 | 113.51811 | 19861 ft | 394 kts | 0° |
| 2026-05-04 15:38 | 29.01802 | 113.51889 | 19927 ft | 394 kts | 0° |
| 2026-05-04 15:38 | 29.03028 | 113.51978 | 20109 ft | 383 kts | 0° |
| 2026-05-04 15:39 | 29.05414 | 113.52167 | 20639 ft | 299 kts | 359° |
| 2026-05-04 15:39 | 29.07273 | 113.52325 | 20883 ft | 249 kts | 358° |
| 2026-05-04 15:39 | 29.10630 | 113.52552 | 21372 ft | 238 kts | 356° |
| 2026-05-04 15:40 | 29.12271 | 113.52659 | 21620 ft | 234 kts | 356° |
| 2026-05-04 15:40 | 29.13890 | 113.52770 | 21869 ft | 232 kts | 356° |
| 2026-05-04 15:40 | 29.15487 | 113.52883 | 22128 ft | 229 kts | 356° |
| 2026-05-04 15:40 | 29.17078 | 113.52996 | 22390 ft | 228 kts | 356° |
| 2026-05-04 15:41 | 29.18606 | 113.53106 | 22639 ft | 227 kts | 355° |
| 2026-05-04 15:41 | 29.20179 | 113.53220 | 22902 ft | 226 kts | 355° |
| 2026-05-04 15:41 | 29.21744 | 113.53332 | 23168 ft | 225 kts | 355° |
| 2026-05-04 15:41 | 29.23305 | 113.53444 | 23422 ft | 228 kts | 355° |
| 2026-05-04 15:42 | 29.25005 | 113.53551 | 23306 ft | 261 kts | 356° |
| 2026-05-04 15:42 | 29.26842 | 113.53676 | 23873 ft | 263 kts | 356° |
| 2026-05-04 15:42 | 29.28628 | 113.53840 | 24662 ft | 253 kts | 356° |
| 2026-05-04 15:42 | 29.30375 | 113.54039 | 25265 ft | 253 kts | 356° |
| 2026-05-04 15:43 | 29.32152 | 113.54266 | 25670 ft | 261 kts | 356° |
| 2026-05-04 15:43 | 29.33951 | 113.54516 | 26073 ft | 267 kts | 357° |
| 2026-05-04 15:43 | 29.35806 | 113.54800 | 26558 ft | 270 kts | 357° |
| 2026-05-04 15:43 | 29.37671 | 113.55115 | 27092 ft | 272 kts | 357° |
| 2026-05-04 15:44 | 29.39545 | 113.55459 | 27576 ft | 275 kts | 358° |
| 2026-05-04 15:44 | 29.41489 | 113.55822 | 27656 ft | 295 kts | 358° |
| 2026-05-04 15:44 | 29.43514 | 113.56193 | 28213 ft | 292 kts | 358° |
| 2026-05-04 15:44 | 29.45491 | 113.56576 | 28949 ft | 287 kts | 356° |
| 2026-05-04 15:45 | 29.47438 | 113.56941 | 29337 ft | 292 kts | 356° |
| 2026-05-04 15:45 | 29.49489 | 113.57206 | 29477 ft | 295 kts | 345° |
| 2026-05-04 15:45 | 29.51520 | 113.56904 | 29603 ft | 300 kts | 338° |
| 2026-05-04 15:45 | 29.53641 | 113.56524 | 29738 ft | 320 kts | 342° |
| 2026-05-04 15:46 | 29.55946 | 113.56347 | 29875 ft | 342 kts | 348° |
| 2026-05-04 15:46 | 29.58394 | 113.56386 | 30027 ft | 362 kts | 352° |
| 2026-05-04 15:46 | 29.60966 | 113.56560 | 30164 ft | 379 kts | 354° |
| 2026-05-04 15:46 | 29.63613 | 113.56794 | 30281 ft | 394 kts | 355° |
| 2026-05-04 15:47 | 29.66399 | 113.57054 | 30402 ft | 409 kts | 355° |
| 2026-05-04 15:47 | 29.69279 | 113.57320 | 30532 ft | 423 kts | 356° |
| 2026-05-04 15:47 | 29.72267 | 113.57589 | 30656 ft | 436 kts | 356° |
| 2026-05-04 15:47 | 29.75339 | 113.57861 | 30782 ft | 449 kts | 356° |
| 2026-05-04 15:48 | 29.78494 | 113.58139 | 30926 ft | 461 kts | 356° |
| 2026-05-04 15:48 | 29.81732 | 113.58423 | 31040 ft | 473 kts | 356° |
| 2026-05-04 15:48 | 29.88336 | 113.59006 | 31114 ft | 480 kts | 357° |
| 2026-05-04 15:49 | 29.94983 | 113.60203 | 31113 ft | 491 kts | 8° |
| 2026-05-04 15:49 | 30.01437 | 113.63021 | 31112 ft | 499 kts | 17° |
| 2026-05-04 15:50 | 30.07795 | 113.66187 | 31112 ft | 498 kts | 17° |
| 2026-05-04 15:50 | 30.14110 | 113.69329 | 31111 ft | 497 kts | 17° |
| 2026-05-04 15:51 | 30.20459 | 113.72499 | 31109 ft | 497 kts | 17° |
| 2026-05-04 15:51 | 30.26805 | 113.75674 | 31109 ft | 497 kts | 17° |
| 2026-05-04 15:52 | 30.33135 | 113.78847 | 31113 ft | 496 kts | 17° |
| 2026-05-04 15:52 | 30.39560 | 113.82065 | 31111 ft | 507 kts | 18° |
| 2026-05-04 15:53 | 30.46009 | 113.85309 | 31111 ft | 506 kts | 18° |
| 2026-05-04 15:53 | 30.52467 | 113.88556 | 31107 ft | 506 kts | 18° |
| 2026-05-04 15:54 | 30.58871 | 113.91788 | 31107 ft | 506 kts | 19° |
| 2026-05-04 15:54 | 30.64419 | 113.96217 | 31111 ft | 521 kts | 40° |
| 2026-05-04 15:55 | 30.66767 | 113.99450 | 31115 ft | 527 kts | 52° |
| 2026-05-04 15:55 | 30.68755 | 114.02997 | 31121 ft | 528 kts | 54° |
| 2026-05-04 15:55 | 30.72658 | 114.10218 | 31121 ft | 527 kts | 54° |
| 2026-05-04 15:56 | 30.76576 | 114.17411 | 31116 ft | 526 kts | 55° |
| 2026-05-04 15:56 | 30.79767 | 114.25098 | 31127 ft | 531 kts | 67° |
| 2026-05-04 15:57 | 30.82390 | 114.33064 | 31115 ft | 530 kts | 67° |
| 2026-05-04 15:57 | 30.84980 | 114.41111 | 31120 ft | 530 kts | 68° |
| 2026-05-04 15:58 | 30.87561 | 114.49145 | 31119 ft | 530 kts | 68° |
| 2026-05-04 15:58 | 30.90151 | 114.57112 | 31121 ft | 530 kts | 67° |
| 2026-05-04 15:59 | 30.92757 | 114.65140 | 31122 ft | 530 kts | 68° |
| 2026-05-04 15:59 | 30.95356 | 114.73177 | 31126 ft | 529 kts | 68° |
| 2026-05-04 16:00 | 30.97934 | 114.81171 | 31129 ft | 529 kts | 68° |
| 2026-05-04 16:00 | 31.00518 | 114.89203 | 31132 ft | 529 kts | 68° |
| 2026-05-04 16:01 | 31.03096 | 114.97238 | 31133 ft | 529 kts | 68° |
| 2026-05-04 16:01 | 31.05652 | 115.05226 | 31139 ft | 529 kts | 68° |
| 2026-05-04 16:02 | 31.08218 | 115.13268 | 31140 ft | 529 kts | 68° |
| 2026-05-04 16:03 | 31.12055 | 115.25338 | 31151 ft | 529 kts | 68° |
| 2026-05-04 16:03 | 31.14597 | 115.33333 | 31151 ft | 529 kts | 68° |
| 2026-05-04 16:04 | 31.17204 | 115.41347 | 31160 ft | 529 kts | 68° |
| 2026-05-04 16:04 | 31.21104 | 115.53395 | 31163 ft | 529 kts | 68° |
| 2026-05-04 16:05 | 31.23673 | 115.61376 | 31164 ft | 529 kts | 68° |
| 2026-05-04 16:06 | 31.27549 | 115.73457 | 31172 ft | 530 kts | 68° |
| 2026-05-04 16:07 | 31.32688 | 115.89550 | 31160 ft | 530 kts | 68° |
| 2026-05-04 16:08 | 31.37950 | 116.05669 | 31164 ft | 531 kts | 67° |
| 2026-05-04 16:09 | 31.44508 | 116.25885 | 31141 ft | 532 kts | 68° |
| 2026-05-04 16:10 | 31.49724 | 116.42064 | 31130 ft | 532 kts | 68° |
| 2026-05-04 16:11 | 31.54942 | 116.58333 | 31128 ft | 533 kts | 68° |
| 2026-05-04 16:12 | 31.62720 | 116.82733 | 31124 ft | 535 kts | 68° |
| 2026-05-04 16:13 | 31.67912 | 116.99127 | 31121 ft | 536 kts | 68° |
| 2026-05-04 16:14 | 31.73002 | 117.15528 | 31122 ft | 537 kts | 68° |
| 2026-05-04 16:16 | 31.77058 | 117.36787 | 31123 ft | 540 kts | 96° |
| 2026-05-04 16:17 | 31.75524 | 117.58814 | 31125 ft | 542 kts | 96° |
| 2026-05-04 16:18 | 31.74280 | 117.76418 | 31128 ft | 544 kts | 96° |
| 2026-05-04 16:19 | 31.72676 | 117.98607 | 31127 ft | 547 kts | 96° |
| 2026-05-04 16:20 | 31.71694 | 118.11917 | 31133 ft | 536 kts | 96° |
| 2026-05-04 16:20 | 31.71091 | 118.20601 | 31134 ft | 538 kts | 95° |
| 2026-05-04 16:22 | 31.69560 | 118.42505 | 31047 ft | 530 kts | 96° |
| 2026-05-04 16:22 | 31.68649 | 118.55189 | 28792 ft | 518 kts | 96° |
| 2026-05-04 16:23 | 31.67753 | 118.67488 | 27092 ft | 483 kts | 95° |
| 2026-05-04 16:24 | 31.66625 | 118.82723 | 24582 ft | 457 kts | 95° |
| 2026-05-04 16:25 | 31.66077 | 118.90046 | 23349 ft | 444 kts | 95° |
| 2026-05-04 16:26 | 31.65017 | 119.04115 | 20576 ft | 424 kts | 95° |
| 2026-05-04 16:26 | 31.64475 | 119.14381 | 20084 ft | 421 kts | 93° |
| 2026-05-04 16:27 | 31.64176 | 119.21239 | 19879 ft | 420 kts | 92° |
| 2026-05-04 16:28 | 31.63726 | 119.31508 | 19837 ft | 420 kts | 92° |
| 2026-05-04 16:28 | 31.63255 | 119.41729 | 19840 ft | 420 kts | 93° |
| 2026-05-04 16:29 | 31.62602 | 119.55434 | 19844 ft | 421 kts | 93° |
| 2026-05-04 16:30 | 31.62111 | 119.65572 | 19747 ft | 415 kts | 93° |
| 2026-05-04 16:31 | 31.61790 | 119.72340 | 19746 ft | 415 kts | 92° |
| 2026-05-04 16:31 | 31.61331 | 119.82495 | 19745 ft | 416 kts | 93° |
| 2026-05-04 16:32 | 31.60860 | 119.92605 | 19715 ft | 414 kts | 93° |
| 2026-05-04 16:33 | 31.60540 | 119.99366 | 18536 ft | 418 kts | 93° |
| 2026-05-04 16:33 | 31.60212 | 120.06203 | 17000 ft | 410 kts | 93° |
| 2026-05-04 16:34 | 31.59906 | 120.12508 | 16768 ft | 371 kts | 93° |
| 2026-05-04 16:34 | 31.59762 | 120.15465 | 16652 ft | 355 kts | 93° |
| 2026-05-04 16:35 | 31.59359 | 120.23627 | 16297 ft | 314 kts | 93° |
| 2026-05-04 16:35 | 31.58984 | 120.30935 | 15685 ft | 291 kts | 96° |
| 2026-05-04 16:36 | 31.58581 | 120.33231 | 15429 ft | 285 kts | 108° |
| 2026-05-04 16:36 | 31.57295 | 120.37530 | 14954 ft | 274 kts | 110° |
| 2026-05-04 16:37 | 31.56073 | 120.41681 | 14474 ft | 265 kts | 110° |
| 2026-05-04 16:37 | 31.55478 | 120.43704 | 14237 ft | 260 kts | 110° |
| 2026-05-04 16:37 | 31.54322 | 120.47625 | 13750 ft | 252 kts | 110° |
| 2026-05-04 16:38 | 31.53187 | 120.51459 | 13227 ft | 246 kts | 109° |
| 2026-05-04 16:39 | 31.51540 | 120.57018 | 12458 ft | 238 kts | 109° |
| 2026-05-04 16:39 | 31.50465 | 120.60642 | 11946 ft | 233 kts | 109° |
| 2026-05-04 16:40 | 31.49400 | 120.64228 | 11322 ft | 236 kts | 108° |
| 2026-05-04 16:40 | 31.48289 | 120.67960 | 10475 ft | 248 kts | 108° |
| 2026-05-04 16:41 | 31.47156 | 120.71762 | 9898 ft | 246 kts | 108° |
| 2026-05-04 16:41 | 31.45483 | 120.77384 | 8970 ft | 244 kts | 108° |
| 2026-05-04 16:42 | 31.43780 | 120.82976 | 8061 ft | 243 kts | 109° |
| 2026-05-04 16:43 | 31.42620 | 120.86690 | 7456 ft | 243 kts | 109° |
| 2026-05-04 16:43 | 31.41457 | 120.90426 | 6773 ft | 248 kts | 109° |
| 2026-05-04 16:43 | 31.40863 | 120.92337 | 6384 ft | 252 kts | 109° |
| 2026-05-04 16:44 | 31.38480 | 121.00123 | 5116 ft | 247 kts | 110° |
| 2026-05-04 16:45 | 31.37381 | 121.03752 | 4973 ft | 226 kts | 110° |
| 2026-05-04 16:46 | 31.35919 | 121.08549 | 4701 ft | 199 kts | 110° |
| 2026-05-04 16:46 | 31.34954 | 121.11711 | 4345 ft | 203 kts | 111° |
| 2026-05-04 16:47 | 31.34054 | 121.14713 | 3888 ft | 200 kts | 111° |
| 2026-05-04 16:47 | 31.33140 | 121.17767 | 3572 ft | 199 kts | 111° |
| 2026-05-04 16:48 | 31.31859 | 121.22036 | 3163 ft | 196 kts | 112° |
| 2026-05-04 16:48 | 31.31407 | 121.23538 | 3014 ft | 195 kts | 112° |
| 2026-05-04 16:49 | 31.30509 | 121.26523 | 2716 ft | 195 kts | 113° |
| 2026-05-04 16:49 | 31.29615 | 121.29486 | 2408 ft | 193 kts | 113° |
| 2026-05-04 16:50 | 31.28755 | 121.32341 | 2115 ft | 190 kts | 113° |
| 2026-05-04 16:50 | 31.27941 | 121.35030 | 2001 ft | 190 kts | 113° |
| 2026-05-04 16:51 | 31.27061 | 121.37922 | 2004 ft | 190 kts | 113° |
| 2026-05-04 16:51 | 31.26615 | 121.39387 | 2009 ft | 196 kts | 113° |
| 2026-05-04 16:51 | 31.25596 | 121.42706 | 3037 ft | 228 kts | 112° |
| 2026-05-04 16:52 | 31.24541 | 121.46167 | 4246 ft | 213 kts | 111° |
| 2026-05-04 16:52 | 31.24066 | 121.47740 | 4339 ft | 204 kts | 111° |
| 2026-05-04 16:53 | 31.23120 | 121.50848 | 4578 ft | 203 kts | 111° |
| 2026-05-04 16:53 | 31.23380 | 121.55817 | 5005 ft | 234 kts | 71° |
| 2026-05-04 16:54 | 31.23868 | 121.57551 | 5079 ft | 218 kts | 71° |
| 2026-05-04 16:55 | 31.27556 | 121.62285 | 3297 ft | 225 kts | 347° |
| 2026-05-04 16:55 | 31.30239 | 121.61128 | 2933 ft | 198 kts | 333° |
| 2026-05-04 16:56 | 31.32780 | 121.59903 | 2303 ft | 195 kts | 337° |
| 2026-05-04 16:56 | 31.36433 | 121.58471 | 2005 ft | 185 kts | 339° |
| 2026-05-04 16:57 | 31.37701 | 121.58320 | 2010 ft | 188 kts | 14° |
| 2026-05-04 16:57 | 31.39174 | 121.60474 | 2015 ft | 182 kts | 99° |
| 2026-05-04 16:58 | 31.37439 | 121.64417 | 2004 ft | 185 kts | 124° |
| 2026-05-04 16:58 | 31.36819 | 121.65738 | 2006 ft | 185 kts | 121° |
| 2026-05-04 16:59 | 31.35723 | 121.68460 | 2001 ft | 185 kts | 118° |
| 2026-05-04 17:00 | 31.33624 | 121.73932 | 2000 ft | 183 kts | 128° |
| 2026-05-04 17:00 | 31.30519 | 121.76115 | 2004 ft | 178 kts | 164° |
| 2026-05-04 17:01 | 31.28163 | 121.77010 | 1998 ft | 177 kts | 164° |
| 2026-05-04 17:01 | 31.25827 | 121.77898 | 1999 ft | 177 kts | 164° |
| 2026-05-04 17:02 | 31.23505 | 121.78779 | 1562 ft | 175 kts | 164° |
| 2026-05-04 17:02 | 31.21267 | 121.79628 | 1109 ft | 171 kts | 164° |
| 2026-05-04 17:03 | 31.20135 | 121.80056 | 884 ft | 173 kts | 163° |
| 2026-05-04 17:03 | 31.18966 | 121.80500 | 656 ft | 178 kts | 162° |
| 2026-05-04 17:03 | 31.16731 | 121.81371 | 240 ft | 166 kts | 162° |
| 2026-05-04 17:04 | 31.14890 | 121.82064 | 21 ft | 34 kts | 162° |
| 2026-05-04 17:04 | 31.14145 | 121.82140 | 24 ft | 51 kts | 180° |
| 2026-05-04 17:05 | 31.13879 | 121.82224 | 25 ft | 0 kts | 160° |
| 2026-05-04 17:08 | 31.13859 | 121.82232 | 24 ft | 22 kts | 162° |
| 2026-05-04 17:08 | 31.13625 | 121.82143 | 27 ft | 40 kts | 261° |
| 2026-05-04 17:09 | 31.13548 | 121.81809 | 24 ft | 45 kts | 248° |
| 2026-05-04 17:09 | 31.13480 | 121.81501 | 22 ft | 26 kts | 269° |
| 2026-05-04 17:09 | 31.13480 | 121.81452 | 22 ft | 0 kts | 272° |
| 2026-05-04 17:11 | 31.13480 | 121.81453 | 22 ft | 1 kts | 272° |
| 2026-05-04 17:11 | 31.13478 | 121.81484 | 24 ft | 7 kts | 281° |
| 2026-05-04 17:11 | 31.13468 | 121.81544 | 26 ft | 0 kts | 336° |
| 2026-05-04 17:12 | 31.13481 | 121.81476 | 22 ft | 11 kts | 271° |
| 2026-05-04 17:12 | 31.13482 | 121.81447 | 22 ft | 0 kts | 274° |